Time;durP1;ratioP1;P1;durP2;ratioP2;P2;SDS_P1;SDS_P2;PMS_P1;PMS_P2;Temp;Humidity;BMP_temperature;BMP_pressure;BME280_temperature;BME280_humidity;BME280_pressure;Samples;Min_cycle;Max_cycle;Signal;HPM_P1;HPM_P2
2023/07/16 00:01:34;;;;;;;14.15;3.38;;;16.50;99.90;;;;;;5077897;28;20453;-62
2023/07/16 00:04:00;;;;;;;11.05;3.25;;;16.60;99.90;;;;;;5078919;28;20045;-62
2023/07/16 00:06:25;;;;;;;9.98;3.60;;;16.50;99.90;;;;;;5077468;28;20056;-62
2023/07/16 00:08:51;;;;;;;14.55;3.72;;;16.50;99.90;;;;;;5078900;28;20055;-62
2023/07/16 00:11:17;;;;;;;11.30;3.00;;;16.40;99.90;;;;;;5077286;28;20071;-61
2023/07/16 00:13:46;;;;;;;10.40;2.60;;;16.50;99.90;;;;;;5078661;28;20045;-61
2023/07/16 00:16:13;;;;;;;9.75;3.13;;;16.50;99.90;;;;;;5077694;28;20079;-62
2023/07/16 00:18:39;;;;;;;12.23;3.33;;;16.40;99.90;;;;;;5078355;28;20497;-62
2023/07/16 00:21:05;;;;;;;9.48;3.00;;;16.40;99.90;;;;;;5078286;28;20052;-61
2023/07/16 00:23:30;;;;;;;10.07;3.08;;;16.40;99.90;;;;;;5076185;28;20483;-55
2023/07/16 00:25:56;;;;;;;11.35;3.25;;;16.30;99.90;;;;;;5078780;28;20057;-61
2023/07/16 00:28:22;;;;;;;11.70;3.20;;;16.30;99.90;;;;;;5076919;28;20039;-62
2023/07/16 00:30:48;;;;;;;12.63;2.65;;;16.30;99.90;;;;;;5077146;28;20056;-61
2023/07/16 00:33:13;;;;;;;12.48;3.50;;;16.40;99.90;;;;;;5077100;28;20040;-61
2023/07/16 00:35:39;;;;;;;9.90;2.72;;;16.30;99.90;;;;;;5078140;28;20036;-62
2023/07/16 00:38:05;;;;;;;9.63;2.63;;;16.30;99.90;;;;;;5078163;28;20109;-61
2023/07/16 00:40:30;;;;;;;11.45;3.05;;;16.30;99.90;;;;;;5077502;28;20036;-62
2023/07/16 00:42:56;;;;;;;10.40;2.90;;;16.40;99.90;;;;;;5078402;28;20451;-61
2023/07/16 00:45:21;;;;;;;9.88;2.75;;;16.30;99.90;;;;;;5076885;28;20111;-61
2023/07/16 00:47:47;;;;;;;10.65;3.25;;;16.30;99.90;;;;;;5078506;28;20049;-61
2023/07/16 00:50:13;;;;;;;14.02;3.13;;;16.40;99.90;;;;;;5077254;28;20769;-62
2023/07/16 00:52:40;;;;;;;10.23;2.88;;;16.40;99.90;;;;;;5077735;28;20048;-61
2023/07/16 00:55:06;;;;;;;11.40;2.83;;;16.30;99.90;;;;;;5077555;28;20414;-61
2023/07/16 00:57:33;;;;;;;10.45;2.28;;;16.40;99.90;;;;;;5077479;28;20114;-62
2023/07/16 00:59:59;;;;;;;6.95;2.42;;;16.40;99.90;;;;;;5077889;28;20056;-62
2023/07/16 01:02:24;;;;;;;9.23;2.72;;;16.40;99.90;;;;;;5076630;28;20040;-62
2023/07/16 01:04:51;;;;;;;11.90;2.97;;;16.40;99.90;;;;;;5078557;28;20041;-61
2023/07/16 01:07:21;;;;;;;10.48;2.75;;;16.40;99.90;;;;;;5076338;28;20048;-61
2023/07/16 01:09:47;;;;;;;12.98;3.03;;;16.50;99.90;;;;;;5078364;28;20064;-60
2023/07/16 01:12:13;;;;;;;11.05;2.67;;;16.40;99.90;;;;;;5075911;28;20095;-61
2023/07/16 01:14:40;;;;;;;10.32;2.97;;;16.50;99.90;;;;;;5078507;28;20072;-61
2023/07/16 01:17:06;;;;;;;12.65;3.40;;;16.50;99.90;;;;;;5081824;28;20036;-61
2023/07/16 01:19:35;;;;;;;10.73;2.80;;;16.50;99.90;;;;;;5080715;28;20041;-61
2023/07/16 01:22:46;;;;;;;20.23;5.30;;;16.60;99.90;;;;;;5082100;28;20108;-60
2023/07/16 01:25:39;;;;;;;12.15;3.90;;;16.70;99.90;;;;;;5081234;28;20190;-61
2023/07/16 01:28:23;;;;;;;16.48;3.70;;;16.70;99.90;;;;;;5080738;28;20052;-61
2023/07/16 01:30:51;;;;;;;11.82;3.15;;;16.70;99.90;;;;;;5080278;28;20045;-61
2023/07/16 01:33:19;;;;;;;12.93;3.83;;;16.80;99.90;;;;;;5080278;28;20048;-61
2023/07/16 01:35:46;;;;;;;13.23;3.30;;;16.70;99.90;;;;;;5081371;28;20068;-62
2023/07/16 01:38:15;;;;;;;12.15;3.40;;;16.70;99.90;;;;;;5080831;28;20555;-60
2023/07/16 01:40:41;;;;;;;11.52;3.22;;;16.70;99.90;;;;;;5080814;28;20040;-62
2023/07/16 01:43:07;;;;;;;12.60;2.95;;;16.70;99.90;;;;;;5079976;28;20059;-61
2023/07/16 01:45:33;;;;;;;10.93;3.72;;;16.70;99.90;;;;;;5080005;28;20045;-63
2023/07/16 01:48:27;;;;;;;9.40;3.03;;;16.60;99.90;;;;;;5081211;28;20066;-61
2023/07/16 01:50:53;;;;;;;10.30;3.13;;;16.70;99.90;;;;;;5080903;28;20044;-61
2023/07/16 01:53:19;;;;;;;9.60;2.75;;;16.70;99.90;;;;;;5080500;28;20064;-61
2023/07/16 01:55:45;;;;;;;12.50;3.05;;;16.70;99.90;;;;;;5081116;28;20064;-61
2023/07/16 01:58:10;;;;;;;10.65;3.10;;;16.70;99.90;;;;;;5079747;28;20044;-61
2023/07/16 02:00:36;;;;;;;11.88;2.83;;;16.70;99.90;;;;;;5081030;28;20048;-62
2023/07/16 02:03:02;;;;;;;10.85;2.90;;;16.70;99.90;;;;;;5080089;28;20322;-62
2023/07/16 02:05:28;;;;;;;11.45;3.58;;;16.60;99.90;;;;;;5078697;28;20040;-61
2023/07/16 02:07:54;;;;;;;11.30;2.95;;;16.60;99.90;;;;;;5059898;28;20037;-61
2023/07/16 02:10:19;;;;;;;10.73;3.10;;;16.60;99.90;;;;;;5071375;28;20048;-59
2023/07/16 02:12:45;;;;;;;9.70;2.55;;;16.60;99.90;;;;;;5060521;28;20044;-61
2023/07/16 02:15:11;;;;;;;12.60;2.92;;;16.60;99.90;;;;;;5059904;28;20037;-61
2023/07/16 02:17:36;;;;;;;10.98;3.60;;;16.60;99.90;;;;;;5060898;28;20048;-60
2023/07/16 02:20:05;;;;;;;8.02;2.70;;;16.60;99.90;;;;;;5058187;28;20045;-61
2023/07/16 02:22:31;;;;;;;11.18;2.72;;;16.60;99.90;;;;;;5060522;28;20401;-61
2023/07/16 02:24:56;;;;;;;8.32;2.55;;;16.60;99.90;;;;;;5060066;28;20049;-60
2023/07/16 02:27:22;;;;;;;8.00;2.47;;;16.60;99.90;;;;;;5058421;28;20127;-61
2023/07/16 02:29:48;;;;;;;7.55;2.50;;;16.60;99.90;;;;;;5060424;28;20052;-61
2023/07/16 02:32:13;;;;;;;9.75;3.03;;;16.50;99.90;;;;;;5059700;28;20101;-61
2023/07/16 02:34:40;;;;;;;8.30;3.17;;;16.50;99.90;;;;;;5059916;28;20044;-61
2023/07/16 02:37:05;;;;;;;10.43;3.00;;;16.50;99.90;;;;;;5058786;28;20428;-61
2023/07/16 02:39:31;;;;;;;8.48;3.08;;;16.50;99.90;;;;;;5060047;28;20052;-61
2023/07/16 02:41:57;;;;;;;10.05;2.97;;;16.50;99.90;;;;;;5059644;28;20102;-61
2023/07/16 02:44:22;;;;;;;10.98;3.60;;;16.50;99.90;;;;;;5059896;28;20051;-61
2023/07/16 02:46:48;;;;;;;14.70;3.42;;;16.50;99.90;;;;;;5060070;28;20048;-61
2023/07/16 02:49:14;;;;;;;8.43;3.38;;;16.40;99.90;;;;;;5059378;28;20075;-61
2023/07/16 02:51:39;;;;;;;8.15;3.30;;;16.50;99.90;;;;;;5060023;28;20053;-61
2023/07/16 02:54:05;;;;;;;11.00;3.65;;;16.50;99.90;;;;;;5071459;28;20039;-61
2023/07/16 02:56:30;;;;;;;10.32;3.17;;;16.40;99.90;;;;;;5080314;28;20067;-62
2023/07/16 02:58:56;;;;;;;12.73;3.53;;;16.40;99.90;;;;;;5079303;28;20063;-64
2023/07/16 03:01:22;;;;;;;12.25;3.58;;;16.40;99.90;;;;;;5079653;28;20055;-62
2023/07/16 03:03:47;;;;;;;10.32;3.60;;;16.40;99.90;;;;;;5079787;28;20048;-60
2023/07/16 03:06:13;;;;;;;14.30;4.53;;;16.40;99.90;;;;;;5079394;28;20036;-60
2023/07/16 03:08:39;;;;;;;8.68;3.63;;;16.40;99.90;;;;;;5079845;28;20128;-61
2023/07/16 03:11:04;;;;;;;11.68;3.92;;;16.40;99.90;;;;;;5078598;28;20100;-61
2023/07/16 03:13:30;;;;;;;13.60;4.13;;;16.40;99.90;;;;;;5078596;28;20048;-61
2023/07/16 03:15:56;;;;;;;11.98;4.65;;;16.40;99.90;;;;;;5078695;28;20040;-60
2023/07/16 03:18:21;;;;;;;11.27;3.85;;;16.40;99.90;;;;;;5079248;28;20088;-61
2023/07/16 03:20:47;;;;;;;11.63;4.00;;;16.40;99.90;;;;;;5078190;28;20049;-61
2023/07/16 03:23:13;;;;;;;9.80;3.70;;;16.40;99.90;;;;;;5078957;28;20119;-61
2023/07/16 03:25:38;;;;;;;9.60;3.58;;;16.40;99.90;;;;;;5079577;28;20052;-61
2023/07/16 03:28:04;;;;;;;11.05;3.47;;;16.30;99.90;;;;;;5078362;28;20053;-61
2023/07/16 03:30:33;;;;;;;13.00;3.97;;;16.30;99.90;;;;;;5079717;28;20068;-62
2023/07/16 03:32:58;;;;;;;11.25;3.85;;;16.30;99.90;;;;;;5078214;28;20079;-61
2023/07/16 03:35:25;;;;;;;11.98;4.43;;;16.40;99.90;;;;;;5079190;28;20036;-61
2023/07/16 03:37:51;;;;;;;12.95;4.45;;;16.30;99.90;;;;;;5078502;28;20037;-61
2023/07/16 03:40:24;;;;;;;10.95;4.00;;;16.30;99.90;;;;;;5078609;28;20090;-61
2023/07/16 03:42:49;;;;;;;10.98;4.40;;;16.30;99.90;;;;;;5079217;28;20047;-61
2023/07/16 03:45:15;;;;;;;11.95;3.97;;;16.30;99.90;;;;;;5076519;28;20585;-61
2023/07/16 03:47:41;;;;;;;12.32;3.95;;;16.30;99.90;;;;;;5079113;28;20423;-61
2023/07/16 03:50:07;;;;;;;11.30;4.10;;;16.30;99.90;;;;;;5077784;28;20041;-61
2023/07/16 03:52:33;;;;;;;13.38;4.57;;;16.30;99.90;;;;;;5077547;28;20044;-61
2023/07/16 03:54:59;;;;;;;13.52;4.13;;;16.40;99.90;;;;;;5078674;28;20055;-60
2023/07/16 03:57:24;;;;;;;12.20;4.18;;;16.40;99.90;;;;;;5078442;28;20045;-61
2023/07/16 03:59:50;;;;;;;14.82;5.53;;;16.40;99.90;;;;;;5078680;28;20036;-61
2023/07/16 04:02:16;;;;;;;12.60;4.80;;;16.40;99.90;;;;;;5077772;28;20044;-60
2023/07/16 04:04:41;;;;;;;12.77;4.15;;;16.40;99.90;;;;;;5079085;28;20462;-61
2023/07/16 04:07:07;;;;;;;11.13;4.53;;;16.50;99.90;;;;;;5077491;28;20028;-61
2023/07/16 04:09:32;;;;;;;10.32;4.45;;;16.50;99.90;;;;;;5078518;28;20048;-61
2023/07/16 04:11:58;;;;;;;12.02;4.10;;;16.50;99.90;;;;;;5078366;28;20048;-61
2023/07/16 04:14:24;;;;;;;12.02;4.68;;;16.50;99.90;;;;;;5077756;28;20071;-61
2023/07/16 04:16:49;;;;;;;10.57;3.88;;;16.60;99.90;;;;;;5078392;28;20117;-61
2023/07/16 04:19:15;;;;;;;12.55;4.57;;;16.60;99.90;;;;;;5077782;28;20052;-61
2023/07/16 04:21:41;;;;;;;13.93;4.68;;;16.60;99.90;;;;;;5078876;28;20048;-62
2023/07/16 04:24:06;;;;;;;12.18;4.80;;;16.50;99.90;;;;;;5077398;28;20051;-61
2023/07/16 04:26:32;;;;;;;12.10;4.70;;;16.50;99.90;;;;;;5078450;28;20048;-60
2023/07/16 04:28:58;;;;;;;11.90;4.82;;;16.60;99.90;;;;;;5077602;28;20049;-61
2023/07/16 04:31:24;;;;;;;12.93;5.10;;;16.50;99.90;;;;;;5078283;28;20036;-62
2023/07/16 04:33:50;;;;;;;12.02;4.75;;;16.60;99.90;;;;;;5078428;28;20044;-61
2023/07/16 04:36:16;;;;;;;14.05;4.50;;;16.60;99.90;;;;;;5077410;28;20104;-61
2023/07/16 04:38:41;;;;;;;13.57;4.90;;;16.60;99.90;;;;;;5078377;28;20044;-61
2023/07/16 04:41:07;;;;;;;14.45;5.05;;;16.70;99.90;;;;;;5077062;28;20095;-61
2023/07/16 04:43:33;;;;;;;10.50;4.78;;;16.70;99.90;;;;;;5078610;28;20452;-60
2023/07/16 04:45:58;;;;;;;12.40;5.25;;;16.80;99.90;;;;;;5077511;28;20068;-61
2023/07/16 04:48:25;;;;;;;12.73;4.88;;;16.80;99.90;;;;;;5078047;28;20145;-61
2023/07/16 04:50:52;;;;;;;10.27;4.88;;;16.90;99.90;;;;;;5081571;28;20319;-62
2023/07/16 04:53:18;;;;;;;13.93;4.95;;;16.80;99.90;;;;;;5081523;28;20080;-61
2023/07/16 04:55:44;;;;;;;14.35;5.55;;;16.90;99.90;;;;;;5082365;28;20048;-61
2023/07/16 04:58:12;;;;;;;13.00;5.07;;;16.90;99.90;;;;;;5081022;28;20080;-61
2023/07/16 05:00:37;;;;;;;15.35;5.90;;;17.00;99.90;;;;;;5082725;28;20040;-60
2023/07/16 05:03:03;;;;;;;12.70;5.15;;;17.10;99.90;;;;;;5081501;28;20043;-60
2023/07/16 05:05:29;;;;;;;13.60;5.30;;;17.10;99.90;;;;;;5080999;28;20037;-60
2023/07/16 05:07:55;;;;;;;15.30;5.57;;;17.10;99.90;;;;;;5081878;28;20088;-61
2023/07/16 05:10:21;;;;;;;12.95;5.18;;;17.20;99.90;;;;;;5081810;28;20048;-61
2023/07/16 05:12:46;;;;;;;13.20;6.43;;;17.30;99.90;;;;;;5082026;28;20058;-60
2023/07/16 05:15:12;;;;;;;14.82;6.20;;;17.30;99.90;;;;;;5081154;28;20068;-60
2023/07/16 05:17:38;;;;;;;15.68;5.63;;;17.60;99.90;;;;;;5082445;28;20070;-60
2023/07/16 05:20:04;;;;;;;12.32;5.30;;;17.60;99.90;;;;;;5080661;28;20033;-60
2023/07/16 05:22:30;;;;;;;15.20;5.75;;;17.50;99.90;;;;;;5081957;28;20041;-59
2023/07/16 05:24:55;;;;;;;14.82;5.40;;;17.50;99.90;;;;;;5076858;28;20063;-60
2023/07/16 05:27:21;;;;;;;14.07;5.45;;;17.50;99.90;;;;;;5066032;28;20080;-60
2023/07/16 05:29:48;;;;;;;13.40;4.85;;;17.40;99.90;;;;;;5077506;28;20430;-60
2023/07/16 05:32:13;;;;;;;11.82;5.00;;;17.40;99.90;;;;;;5074336;28;20109;-60
2023/07/16 05:34:39;;;;;;;15.75;4.93;;;17.40;99.90;;;;;;5072927;28;20036;-60
2023/07/16 05:37:05;;;;;;;11.85;5.68;;;17.40;99.90;;;;;;5076020;28;20066;-60
2023/07/16 05:39:31;;;;;;;11.65;4.78;;;17.30;99.90;;;;;;5077749;28;20047;-59
2023/07/16 05:41:57;;;;;;;11.38;4.82;;;17.30;99.90;;;;;;5076987;28;20514;-60
2023/07/16 05:44:22;;;;;;;11.65;4.78;;;17.30;99.90;;;;;;5077335;28;20065;-60
2023/07/16 05:46:48;;;;;;;13.07;4.68;;;17.40;99.90;;;;;;5077680;28;20040;-61
2023/07/16 05:49:14;;;;;;;11.10;4.25;;;17.40;99.90;;;;;;5075453;28;20044;-60
2023/07/16 05:51:40;;;;;;;10.73;4.53;;;17.40;99.90;;;;;;5077243;28;20036;-61
2023/07/16 05:54:06;;;;;;;10.07;4.20;;;17.40;99.90;;;;;;5074180;28;20045;-59
2023/07/16 05:56:32;;;;;;;14.63;5.45;;;17.40;99.90;;;;;;5077244;28;20044;-60
2023/07/16 05:58:57;;;;;;;11.52;4.55;;;17.40;99.90;;;;;;5076924;28;20040;-60
2023/07/16 06:01:23;;;;;;;13.18;4.53;;;17.40;99.90;;;;;;5076268;28;20051;-60
2023/07/16 06:03:49;;;;;;;13.50;4.72;;;17.40;99.90;;;;;;5077667;28;20072;-60
2023/07/16 06:06:14;;;;;;;12.18;4.40;;;17.50;99.90;;;;;;5076252;28;20037;-60
2023/07/16 06:08:40;;;;;;;10.98;4.70;;;17.60;99.90;;;;;;5077014;28;20135;-60
2023/07/16 06:11:06;;;;;;;11.80;4.60;;;17.60;99.90;;;;;;5075700;28;20051;-60
2023/07/16 06:13:32;;;;;;;12.73;4.30;;;17.50;99.90;;;;;;5076875;28;20056;-60
2023/07/16 06:15:57;;;;;;;12.77;4.57;;;17.60;99.90;;;;;;5076095;28;20423;-60
2023/07/16 06:18:23;;;;;;;11.18;4.07;;;17.90;99.90;;;;;;5076693;28;20052;-59
2023/07/16 06:20:50;;;;;;;12.95;4.88;;;17.90;99.90;;;;;;5076907;28;20051;-59
2023/07/16 06:23:16;;;;;;;13.75;5.18;;;17.70;99.90;;;;;;5076184;28;20044;-60
2023/07/16 06:25:44;;;;;;;15.20;4.68;;;17.50;99.90;;;;;;5075427;28;20538;-60
2023/07/16 06:28:10;;;;;;;11.10;4.38;;;17.20;99.90;;;;;;5055556;28;20045;-60
2023/07/16 06:30:37;;;;;;;13.45;5.95;;;17.20;99.90;;;;;;5057169;28;20052;-60
2023/07/16 06:33:03;;;;;;;12.10;4.70;;;17.30;99.90;;;;;;5061480;28;20884;-60
2023/07/16 06:35:28;;;;;;;11.98;4.45;;;17.40;99.90;;;;;;5074369;28;20047;-60
2023/07/16 06:37:54;;;;;;;14.93;5.10;;;17.40;99.90;;;;;;5073573;28;20124;-60
2023/07/16 06:40:20;;;;;;;13.48;5.75;;;17.20;99.90;;;;;;5073505;28;20047;-60
2023/07/16 06:42:45;;;;;;;14.13;5.07;;;17.20;99.90;;;;;;5064667;28;20051;-59
2023/07/16 06:45:11;;;;;;;13.68;5.15;;;17.20;99.90;;;;;;5062261;28;20052;-60
2023/07/16 06:47:37;;;;;;;15.88;4.72;;;17.40;99.90;;;;;;5066575;28;20060;-59
2023/07/16 06:50:03;;;;;;;13.23;5.22;;;17.60;99.90;;;;;;5074853;28;20040;-60
2023/07/16 06:52:30;;;;;;;11.80;4.85;;;17.70;99.90;;;;;;5076630;28;20584;-60
2023/07/16 06:54:57;;;;;;;12.93;5.00;;;17.70;99.90;;;;;;5075975;28;20041;-58
2023/07/16 06:57:25;;;;;;;12.75;5.45;;;17.70;99.90;;;;;;5075608;28;20036;-61
2023/07/16 06:59:51;;;;;;;13.73;5.40;;;17.60;99.90;;;;;;5076306;28;20045;-60
2023/07/16 07:02:17;;;;;;;12.88;5.20;;;17.60;99.90;;;;;;5074829;28;20526;-60
2023/07/16 07:04:43;;;;;;;13.90;6.40;;;17.50;99.90;;;;;;5076484;28;20080;-60
2023/07/16 07:07:09;;;;;;;11.30;4.53;;;17.50;99.90;;;;;;5074269;28;20060;-59
2023/07/16 07:09:34;;;;;;;12.13;5.30;;;17.60;99.90;;;;;;5075650;28;20059;-59
2023/07/16 07:12:00;;;;;;;11.98;6.35;;;17.60;99.90;;;;;;5074385;28;20571;-59
2023/07/16 07:14:26;;;;;;;12.48;5.57;;;17.70;99.90;;;;;;5073394;28;20055;-59
2023/07/16 07:16:52;;;;;;;17.20;5.70;;;17.90;99.90;;;;;;5074478;28;20075;-59
2023/07/16 07:19:17;;;;;;;13.75;5.30;;;17.90;99.90;;;;;;5074773;28;20052;-60
2023/07/16 07:21:43;;;;;;;13.55;5.03;;;18.00;99.90;;;;;;5074689;28;20631;-58
2023/07/16 07:24:09;;;;;;;15.35;6.05;;;18.00;99.90;;;;;;5074085;28;20056;-58
2023/07/16 07:26:34;;;;;;;14.45;5.57;;;18.10;99.90;;;;;;5067989;28;20049;-59
2023/07/16 07:29:00;;;;;;;16.63;5.93;;;18.10;99.90;;;;;;5064027;28;20045;-59
2023/07/16 07:31:26;;;;;;;12.02;5.47;;;18.00;99.90;;;;;;5055364;28;20116;-58
2023/07/16 07:33:53;;;;;;;11.73;5.75;;;18.00;99.90;;;;;;5063675;28;20059;-59
2023/07/16 07:36:19;;;;;;;15.45;5.20;;;18.00;99.90;;;;;;5065925;28;20099;-59
2023/07/16 07:38:45;;;;;;;13.40;5.68;;;17.90;99.90;;;;;;5075031;28;20519;-59
2023/07/16 07:41:10;;;;;;;12.15;6.40;;;18.20;99.90;;;;;;5074500;28;20492;-59
2023/07/16 07:43:36;;;;;;;10.13;4.82;;;18.20;99.90;;;;;;5075367;28;20077;-59
2023/07/16 07:46:02;;;;;;;13.57;5.70;;;18.20;99.90;;;;;;5073432;28;20557;-59
2023/07/16 07:48:28;;;;;;;15.07;6.25;;;18.20;99.90;;;;;;5074981;28;20458;-59
2023/07/16 07:50:54;;;;;;;14.43;5.47;;;18.30;99.90;;;;;;5074909;28;20113;-59
2023/07/16 07:53:19;;;;;;;13.82;5.97;;;18.30;99.90;;;;;;5074339;28;20098;-59
2023/07/16 07:55:45;;;;;;;12.98;5.97;;;18.10;99.90;;;;;;5075211;28;20338;-59
2023/07/16 07:58:11;;;;;;;16.23;5.07;;;18.20;99.90;;;;;;5073607;28;20060;-59
2023/07/16 08:00:37;;;;;;;11.75;5.43;;;18.10;99.90;;;;;;5074518;28;20045;-58
2023/07/16 08:03:03;;;;;;;15.90;6.05;;;18.20;99.90;;;;;;5073869;28;20131;-59
2023/07/16 08:05:29;;;;;;;11.43;5.30;;;18.40;99.90;;;;;;5073689;28;20048;-60
2023/07/16 08:07:55;;;;;;;11.85;5.20;;;18.50;99.90;;;;;;5074287;28;20109;-60
2023/07/16 08:10:21;;;;;;;11.02;5.22;;;18.30;99.90;;;;;;5072780;28;20047;-59
2023/07/16 08:12:47;;;;;;;11.02;5.70;;;18.30;99.90;;;;;;5074238;28;20048;-59
2023/07/16 08:15:15;;;;;;;13.05;5.80;;;18.30;99.90;;;;;;5073220;28;20524;-59
2023/07/16 08:17:45;;;;;;;14.00;5.57;;;18.30;99.90;;;;;;5075101;28;20055;-58
2023/07/16 08:20:11;;;;;;;13.57;5.75;;;18.30;99.90;;;;;;5074097;28;20416;-59
2023/07/16 08:22:38;;;;;;;11.13;5.50;;;18.20;99.90;;;;;;5074170;28;20150;-58
2023/07/16 08:25:05;;;;;;;12.52;6.55;;;18.10;99.90;;;;;;5073002;28;20760;-58
2023/07/16 08:27:30;;;;;;;12.05;5.40;;;18.30;99.90;;;;;;5073669;28;20036;-59
2023/07/16 08:29:56;;;;;;;11.25;5.28;;;18.20;99.90;;;;;;5074797;28;20067;-59
2023/07/16 08:32:22;;;;;;;11.00;5.75;;;18.20;99.90;;;;;;5070052;28;20052;-58
2023/07/16 08:34:48;;;;;;;10.82;5.57;;;18.00;99.90;;;;;;5067933;28;20506;-58
2023/07/16 08:37:14;;;;;;;11.50;5.75;;;18.10;99.90;;;;;;5052876;28;20409;-59
2023/07/16 08:39:40;;;;;;;12.20;5.63;;;18.00;99.90;;;;;;5054163;28;20033;-58
2023/07/16 08:42:08;;;;;;;10.80;5.38;;;18.20;99.90;;;;;;5053032;28;20128;-59
2023/07/16 08:44:34;;;;;;;13.18;5.75;;;18.30;99.90;;;;;;5053839;28;20048;-58
2023/07/16 08:46:59;;;;;;;13.93;6.93;;;18.50;99.90;;;;;;5054726;28;20100;-59
2023/07/16 08:49:28;;;;;;;14.90;6.80;;;18.60;99.90;;;;;;5052607;28;20037;-58
2023/07/16 08:51:55;;;;;;;12.90;5.28;;;18.60;99.90;;;;;;5053712;28;20743;-58
2023/07/16 08:54:22;;;;;;;12.02;5.68;;;18.70;99.90;;;;;;5068488;28;20075;-59
2023/07/16 08:56:48;;;;;;;13.90;5.75;;;18.80;99.90;;;;;;5074217;28;20059;-59
2023/07/16 08:59:18;;;;;;;13.95;5.80;;;19.00;99.90;;;;;;5074028;28;20040;-59
2023/07/16 09:01:46;;;;;;;12.88;5.45;;;19.30;99.90;;;;;;5073247;28;20076;-58
2023/07/16 09:04:11;;;;;;;12.98;5.25;;;19.40;99.90;;;;;;5072484;28;20048;-58
2023/07/16 09:06:37;;;;;;;12.93;5.88;;;19.70;99.90;;;;;;5072895;28;20048;-58
2023/07/16 09:09:03;;;;;;;13.38;5.78;;;19.50;99.90;;;;;;5074475;28;20037;-58
2023/07/16 09:11:29;;;;;;;11.98;5.65;;;19.80;99.90;;;;;;5071975;28;20172;-59
2023/07/16 09:13:54;;;;;;;11.70;5.40;;;19.90;99.90;;;;;;5073419;28;20037;-59
2023/07/16 09:16:21;;;;;;;9.75;4.63;;;19.90;99.90;;;;;;5074063;28;20052;-59
2023/07/16 09:18:47;;;;;;;18.45;5.72;;;19.90;99.90;;;;;;5056009;28;20090;-59
2023/07/16 09:21:13;;;;;;;11.07;5.10;;;19.80;99.90;;;;;;5075697;28;20051;-59
2023/07/16 09:23:41;;;;;;;10.48;4.90;;;19.90;99.90;;;;;;5076599;28;20041;-59
2023/07/16 09:26:07;;;;;;;11.93;5.18;;;19.60;99.90;;;;;;5077277;28;20136;-59
2023/07/16 09:28:33;;;;;;;11.27;5.50;;;19.10;99.90;;;;;;5076596;28;20076;-58
2023/07/16 09:31:07;;;;;;;14.25;6.30;;;18.70;99.90;;;;;;5077777;28;20040;-59
2023/07/16 09:33:33;;;;;;;16.00;6.40;;;18.40;99.90;;;;;;5077799;28;20066;-59
2023/07/16 09:35:59;;;;;;;13.05;5.53;;;18.20;99.90;;;;;;5075898;28;20036;-59
2023/07/16 09:38:27;;;;;;;11.10;5.53;;;18.30;99.90;;;;;;5069039;28;20040;-59
2023/07/16 09:40:55;;;;;;;15.73;5.15;;;18.60;99.90;;;;;;5068285;28;20041;-59
2023/07/16 09:43:21;;;;;;;14.20;5.90;;;18.80;99.90;;;;;;5067268;28;20055;-60
2023/07/16 09:45:47;;;;;;;13.02;5.47;;;18.80;99.90;;;;;;5072253;28;20056;-59
2023/07/16 09:48:13;;;;;;;11.63;5.15;;;18.70;99.90;;;;;;5061172;28;20052;-59
2023/07/16 09:50:45;;;;;;;12.35;5.88;;;18.70;99.90;;;;;;5061174;28;20045;-59
2023/07/16 09:53:12;;;;;;;12.70;5.18;;;18.60;99.90;;;;;;5065883;28;20056;-59
2023/07/16 09:55:38;;;;;;;10.65;5.70;;;18.50;99.90;;;;;;5080616;28;20519;-59
2023/07/16 09:58:09;;;;;;;13.25;5.53;;;18.60;99.90;;;;;;5079960;28;20045;-59
2023/07/16 10:00:36;;;;;;;11.57;5.28;;;18.80;99.90;;;;;;5081284;28;20051;-59
2023/07/16 10:03:02;;;;;;;11.18;4.95;;;18.90;99.90;;;;;;5080058;28;20041;-57
2023/07/16 10:05:28;;;;;;;12.10;5.78;;;19.30;99.90;;;;;;5080907;28;20036;-60
2023/07/16 10:07:59;;;;;;;12.15;4.70;;;19.60;99.90;;;;;;5075475;28;20037;-59
2023/07/16 10:10:40;;;;;;;10.52;5.25;;;19.60;99.90;;;;;;5067025;28;20068;-59
2023/07/16 10:13:08;;;;;;;10.13;4.55;;;19.60;99.90;;;;;;5058672;28;20063;-59
2023/07/16 10:15:34;;;;;;;11.57;5.03;;;19.50;99.90;;;;;;5055898;28;20071;-59
2023/07/16 10:17:59;;;;;;;10.60;4.53;;;19.50;99.90;;;;;;5057020;28;20036;-59
2023/07/16 10:20:33;;;;;;;11.65;5.13;;;19.40;99.90;;;;;;5056652;28;20045;-59
2023/07/16 10:23:10;;;;;;;11.77;4.90;;;19.40;99.90;;;;;;5056701;28;20048;-59
2023/07/16 10:25:36;;;;;;;13.38;5.32;;;19.60;99.90;;;;;;5056209;28;20044;-59
2023/07/16 10:28:02;;;;;;;9.30;4.80;;;20.00;99.90;;;;;;5055644;28;20540;-59
2023/07/16 10:30:28;;;;;;;12.00;4.30;;;19.90;99.90;;;;;;5057204;28;20104;-59
2023/07/16 10:32:53;;;;;;;9.90;4.40;;;19.90;99.90;;;;;;5055768;28;20041;-58
2023/07/16 10:35:19;;;;;;;10.45;4.68;;;19.90;99.90;;;;;;5056888;28;20048;-59
2023/07/16 10:37:45;;;;;;;10.68;5.10;;;19.70;99.90;;;;;;5055636;28;20052;-58
2023/07/16 10:40:12;;;;;;;13.27;5.88;;;19.60;99.90;;;;;;5056064;28;20075;-59
2023/07/16 10:42:42;;;;;;;13.68;5.03;;;19.10;99.90;;;;;;5056540;28;20049;-59
2023/07/16 10:45:09;;;;;;;13.85;5.50;;;19.20;99.90;;;;;;5055026;28;20076;-59
2023/07/16 10:47:40;;;;;;;12.60;5.65;;;19.60;99.90;;;;;;5055295;28;20056;-59
2023/07/16 10:50:08;;;;;;;13.27;5.32;;;19.60;99.90;;;;;;5055397;28;20048;-60
2023/07/16 10:52:34;;;;;;;13.65;5.15;;;19.70;99.90;;;;;;5055754;28;20481;-58
2023/07/16 10:55:00;;;;;;;10.10;5.30;;;19.80;99.90;;;;;;5075629;28;20052;-59
2023/07/16 10:57:27;;;;;;;13.95;5.38;;;20.00;99.90;;;;;;5075328;28;20036;-58
2023/07/16 10:59:57;;;;;;;12.15;4.88;;;19.80;99.90;;;;;;5076027;28;20048;-57
2023/07/16 11:02:24;;;;;;;11.73;5.00;;;19.70;99.90;;;;;;5073923;28;20053;-58
2023/07/16 11:04:53;;;;;;;12.60;4.72;;;19.80;99.90;;;;;;5075318;28;20047;-58
2023/07/16 11:07:19;;;;;;;11.90;5.63;;;20.00;99.90;;;;;;5074484;28;20051;-58
2023/07/16 11:09:52;;;;;;;10.32;4.57;;;20.20;99.90;;;;;;5074432;28;20044;-58
2023/07/16 11:12:22;;;;;;;12.20;4.78;;;20.20;99.90;;;;;;5074159;28;20052;-59
2023/07/16 11:14:50;;;;;;;9.63;4.53;;;19.90;99.90;;;;;;5074819;28;20127;-58
2023/07/16 11:17:16;;;;;;;11.82;4.60;;;19.60;99.90;;;;;;5076045;28;20071;-58
2023/07/16 11:19:46;;;;;;;9.70;4.18;;;19.60;99.90;;;;;;5074825;28;20631;-58
2023/07/16 11:22:11;;;;;;;10.82;5.05;;;19.90;99.90;;;;;;5075623;28;20044;-58
2023/07/16 11:24:44;;;;;;;11.38;4.38;;;20.20;99.90;;;;;;5076681;28;20056;-60
2023/07/16 11:27:17;;;;;;;11.18;4.40;;;20.10;99.90;;;;;;5071579;28;20063;-59
2023/07/16 11:29:56;;;;;;;12.05;3.97;;;20.00;99.90;;;;;;5068915;28;20051;-58
2023/07/16 11:32:35;;;;;;;10.77;4.95;;;19.70;99.90;;;;;;5058147;28;20343;-58
2023/07/16 11:35:07;;;;;;;10.90;4.90;;;19.10;99.90;;;;;;5065757;28;20056;-58
2023/07/16 11:37:35;;;;;;;9.55;4.60;;;18.80;99.90;;;;;;5066566;28;20066;-58
2023/07/16 11:40:06;;;;;;;10.88;4.80;;;19.10;99.90;;;;;;5068888;28;20064;-58
2023/07/16 11:42:37;;;;;;;10.45;4.47;;;19.40;99.90;;;;;;5058975;28;20059;-57
2023/07/16 11:45:05;;;;;;;10.20;4.40;;;19.90;99.90;;;;;;5057977;28;20072;-58
2023/07/16 11:47:31;;;;;;;12.73;4.28;;;20.30;99.90;;;;;;5059099;28;20105;-59
2023/07/16 11:49:57;;;;;;;10.80;3.70;;;20.70;99.90;;;;;;5056391;28;20048;-58
2023/07/16 11:52:25;;;;;;;10.52;5.00;;;20.60;99.90;;;;;;5058889;28;20044;-59
2023/07/16 11:55:01;;;;;;;10.07;3.83;;;20.30;99.90;;;;;;5077355;28;20040;-58
2023/07/16 11:57:27;;;;;;;10.20;3.65;;;20.40;99.90;;;;;;5065864;28;20052;-58
2023/07/16 11:59:53;;;;;;;9.57;3.35;;;20.70;99.90;;;;;;5075698;28;20139;-58
2023/07/16 12:02:20;;;;;;;9.25;3.85;;;20.90;99.90;;;;;;5060951;28;20603;-59
2023/07/16 12:04:45;;;;;;;11.00;3.90;;;21.30;99.90;;;;;;5058975;28;20041;-59
2023/07/16 12:07:11;;;;;;;11.10;4.30;;;21.30;99.90;;;;;;5057645;28;20521;-59
2023/07/16 12:09:37;;;;;;;11.93;4.32;;;21.00;99.90;;;;;;5064655;28;20182;-59
2023/07/16 12:12:03;;;;;;;11.40;4.28;;;20.70;99.90;;;;;;5063863;28;20040;-58
2023/07/16 12:14:29;;;;;;;13.02;4.30;;;20.60;99.90;;;;;;5068496;28;20049;-58
2023/07/16 12:16:56;;;;;;;10.45;4.55;;;20.60;99.90;;;;;;5058679;28;20555;-58
2023/07/16 12:19:22;;;;;;;13.23;5.35;;;20.40;99.90;;;;;;5057585;28;20102;-59
2023/07/16 12:21:48;;;;;;;12.32;5.10;;;20.20;99.90;;;;;;5058870;28;20070;-59
2023/07/16 12:24:13;;;;;;;9.40;4.22;;;20.10;99.90;;;;;;5057020;28;20076;-59
2023/07/16 12:26:39;;;;;;;11.50;4.47;;;20.10;99.90;;;;;;5058365;28;20041;-58
2023/07/16 12:29:05;;;;;;;11.02;4.80;;;20.10;99.90;;;;;;5058197;28;20044;-58
2023/07/16 12:31:33;;;;;;;11.35;4.70;;;20.20;99.90;;;;;;5057692;28;20033;-58
2023/07/16 12:34:04;;;;;;;10.18;4.25;;;20.30;99.90;;;;;;5058288;28;20048;-58
2023/07/16 12:36:30;;;;;;;13.35;5.28;;;20.00;99.90;;;;;;5056902;28;20041;-59